Flight Track Log - Related Links

Times and Time Zones

All times are in EDT time to prevent confusion due to time zone crossing. See the SWA3313 flight status page for this flight to view local times or setup timezone preferences in your user account.

Time Position Orientation Groundspeed Altitude Reporting Facility
EDT Latitude Longitude Course Direction KTS MPH feet Rate Location/Type
Sun 05:38:07 PM 42.9167 -71.4333 200° South 149 171 1,200  Level KA90
Sun 05:38:55 PM 42.8833 -71.4500 200° South 201 231 2,900 2,611 Climbing KA90
Sun 05:39:55 PM 42.8167 -71.4833 200° South 230 265 5,900 2,792 Climbing KA90
Sun 05:40:36 PM 42.7942 -71.4497 132° Southeast 262 302 7,600 2,733 Climbing Boston Center
Sun 05:41:36 PM 42.8456 -71.3781 46° Northeast 187 215 10,500 2,200 Climbing Boston Center
Sun 05:42:36 PM 42.9033 -71.3064 42° Northeast 252 290 12,000 2,500 Climbing Boston Center
Sun 05:43:36 PM 42.9836 -71.2111 41° Northeast 303 349 15,500 3,200 Climbing Boston Center
Sun 05:44:36 PM 43.0472 -71.1275 44° Northeast 342 394 18,400 2,750 Climbing Boston Center
Sun 05:45:36 PM 43.0706 -70.9878 77° East 361 415 21,000 2,400 Climbing Boston Center
Sun 05:46:36 PM 42.9756 -70.9047 147° Southeast 283 326 23,200 2,300 Climbing Boston Center
Sun 05:47:36 PM 42.8533 -70.9447 193° South 307 353 25,600 2,300 Climbing Boston Center
Sun 05:48:36 PM 42.7394 -71.0011 200° South 377 434 27,800 2,100 Climbing Boston Center
Sun 05:49:36 PM 42.6172 -71.0606 200° South 420 483 29,800 2,000 Climbing Boston Center
Sun 05:50:36 PM 42.5331 -71.1722 224° Southwest 433 498 31,800 2,100 Climbing Boston Center
Sun 05:51:36 PM 42.4717 -71.2972 236° Southwest 410 472 34,000 1,100 Climbing Boston Center
Sun 05:52:36 PM 42.4106 -71.4222 237° Southwest 410 472 34,000  Level Boston Center
Sun 05:53:36 PM 42.3469 -71.5467 235° Southwest 405 466 34,000  Level Boston Center
Sun 05:54:36 PM 42.2811 -71.6683 234° Southwest 405 466 34,000  Level Boston Center
Sun 05:55:36 PM 42.2172 -71.7897 235° Southwest 405 466 34,000  Level Boston Center
Sun 05:56:36 PM 42.1533 -71.9164 236° Southwest 405 466 34,000  Level Boston Center
Sun 05:57:36 PM 42.0914 -72.0400 236° Southwest 405 466 34,000  Level Boston Center
Sun 05:58:36 PM 42.0269 -72.1661 236° Southwest 405 466 34,000  Level Boston Center
Sun 05:59:48 PM 41.9625 -72.2892 235° Southwest 405 466 34,000  Level Boston Center
Sun 06:00:48 PM 41.8856 -72.4372 235° Southwest 405 466 34,000  Level Boston Center
Sun 06:01:48 PM 41.8231 -72.5600 236° Southwest 405 466 34,000  Level Boston Center
Sun 06:02:48 PM 41.7583 -72.6850 235° Southwest 405 466 34,000  Level Boston Center
Sun 06:03:48 PM 41.6933 -72.8069 235° Southwest 405 466 34,000  Level Boston Center
Sun 06:04:48 PM 41.6283 -72.9289 235° Southwest 405 466 34,000 -350 Level Boston Center
Sun 06:05:48 PM 41.5567 -73.0642 235° Southwest 405 466 33,300 -800 Descending Boston Center
Sun 06:06:48 PM 41.5019 -73.1719 236° Southwest 405 466 32,400 -650 Descending Boston Center
Sun 06:07:48 PM 41.4364 -73.2956 235° Southwest 405 466 32,000 -795 Descending Boston Center
Sun 06:09:19 PM 41.3344 -73.4900 235° Southwest 395 455 30,400 -805 Descending New Center
Sun 06:10:17 PM 41.2650 -73.6114 233° Southwest 406 467 30,000 -202 Descending New Center
Sun 06:11:18 PM 41.1953 -73.7297 232° Southwest 416 479 30,000  Level New Center
Sun 06:12:18 PM 41.1236 -73.8506 232° Southwest 416 479 30,000  Level New Center
Sun 06:13:16 PM 41.0536 -73.9683 232° Southwest 421 484 30,000  Level New Center
Sun 06:14:18 PM 40.9836 -74.0914 233° Southwest 421 484 30,000 -50 Level New Center
Sun 06:15:16 PM 40.9075 -74.2031 228° Southwest 421 484 29,900 -504 Descending New Center
Sun 06:16:17 PM 40.8375 -74.3203 232° Southwest 421 484 29,000 -446 Descending New Center
Sun 06:17:17 PM 40.7694 -74.4344 232° Southwest 415 478 29,000 -252 Level New Center
Sun 06:18:16 PM 40.7014 -74.5458 231° Southwest 410 472 28,500 -500 Descending New Center
Sun 06:19:17 PM 40.6331 -74.6597 232° Southwest 410 472 28,000 -248 Descending New Center
Sun 06:20:17 PM 40.5647 -74.7678 230° Southwest 400 460 28,000  Level New Center
Sun 06:21:18 PM 40.4925 -74.8728 228° Southwest 392 451 28,000 -694 Level New Center
Sun 06:22:18 PM 40.4200 -74.9719 226° Southwest 387 445 26,600 -1,686 Descending New Center
Sun 06:23:19 PM 40.3497 -75.0711 227° Southwest 387 445 24,600 -2,085 Descending New Center
Sun 06:24:16 PM 40.2794 -75.1731 228° Southwest 381 438 22,500 -2,136 Descending New Center
Sun 06:25:17 PM 40.2133 -75.2667 227° Southwest 374 430 20,400 -1,967 Descending New Center
Sun 06:26:18 PM 40.1519 -75.3494 226° Southwest 361 415 18,500 -1,210 Descending New Center
Sun 06:27:16 PM 40.0792 -75.4478 226° Southwest 351 404 18,000 -254 Descending New Center
Sun 06:28:16 PM 40.0239 -75.5256 227° Southwest 340 391 18,000  Level New Center
Sun 06:29:17 PM 39.9556 -75.6183 226° Southwest 329 379 18,000  Level New Center
Sun 06:30:17 PM 39.9067 -75.6933 230° Southwest 317 365 18,000 -99 Level New Center
Sun 06:31:18 PM 39.8769 -75.7994 250° West 293 337 17,800 -694 Descending New Center
Sun 06:32:18 PM 39.8664 -75.9017 262° West 293 337 16,600 -1,399 Descending New Center
Sun 06:34:01 PM 39.8000 -76.0500 240° Southwest 290 334 14,000 -1,472 Descending Potomac TRACON
Sun 06:35:01 PM 39.7500 -76.1167 226° Southwest 289 333 12,600 -1,000 Descending Potomac TRACON
Sun 06:36:01 PM 39.6833 -76.1833 218° Southwest 277 319 12,000 -800 Descending Potomac TRACON
Sun 06:37:01 PM 39.6333 -76.2500 226° Southwest 271 312 11,000 -1,158 Descending Potomac TRACON
Sun 06:37:55 PM 39.6000 -76.3333 243° Southwest 261 300 9,800 -1,368 Descending Potomac TRACON
Sun 06:38:55 PM 39.5667 -76.4167 243° Southwest 253 291 8,400 -1,438 Descending Potomac TRACON
Sun 06:39:56 PM 39.5333 -76.4833 237° Southwest 255 293 6,900 -1,559 Descending Potomac TRACON
Sun 06:41:02 PM 39.5000 -76.5833 247° West 264 304 5,100 -1,381 Descending Potomac TRACON
Sun 06:42:02 PM 39.4667 -76.6667 243° Southwest 258 297 4,000 -550 Descending Potomac TRACON
Sun 06:43:02 PM 39.4333 -76.7500 243° Southwest 254 292 4,000 -105 Level Potomac TRACON
Sun 06:43:56 PM 39.3833 -76.7833 207° Southwest 241 277 3,800 -500 Descending Potomac TRACON
Sun 06:45:02 PM 39.3167 -76.8333 210° Southwest 237 273 3,000 -381 Descending Potomac TRACON
Sun 06:46:02 PM 39.2667 -76.8500 194° South 190 219 3,000  Level Potomac TRACON
Sun 06:46:57 PM 39.2167 -76.8833 207° Southwest 172 198 3,000 -158 Level Potomac TRACON
Sun 06:47:56 PM 39.2000 -76.8333 113° Southeast 155 178 2,700 -672 Descending Potomac TRACON
Sun 06:49:02 PM 39.1833 -76.7833 113° Southeast 137 158 1,600 -900 Descending Potomac TRACON
Sun 06:49:56 PM 39.1833 -76.7333 90° East 134 154 900 -778 Descending Potomac TRACON
Sun 06:51:00 PM 39.1667 -76.6667 270° West  Level FlightAware
Sun 06:58:00 PM 39.1754 -76.6683 270° West  Level Estimated
Sun 06:59:00 PM 39.1754 -76.6683 270° West  Level Estimated
Sun 07:00:00 PM 39.1754 -76.6683 270° West  Level Estimated
Sun 07:01:00 PM 39.1754 -76.6683 270° West  Level Estimated

Login

Don't have an account? Register now (free) for customized features, flight alerts, and more!